sensor_id;sensor_type;location;lat;lon;timestamp;P1;durP1;ratioP1;P2;durP2;ratioP2
51489;SDS011;57752;53.574;9.736;2023-07-31T00:03:59;17.15;;;5.32;;
51489;SDS011;57752;53.574;9.736;2023-07-31T00:08:59;15.35;;;5.05;;
51489;SDS011;57752;53.574;9.736;2023-07-31T00:13:59;13.82;;;4.68;;
51489;SDS011;57752;53.574;9.736;2023-07-31T00:18:59;16.08;;;4.88;;
51489;SDS011;57752;53.574;9.736;2023-07-31T00:23:59;15.43;;;4.30;;
51489;SDS011;57752;53.574;9.736;2023-07-31T00:28:59;16.38;;;3.72;;
51489;SDS011;57752;53.574;9.736;2023-07-31T00:33:59;13.10;;;4.03;;
51489;SDS011;57752;53.574;9.736;2023-07-31T00:39:00;12.68;;;3.95;;
51489;SDS011;57752;53.574;9.736;2023-07-31T00:44:00;12.52;;;3.88;;
51489;SDS011;57752;53.574;9.736;2023-07-31T00:49:00;14.60;;;4.40;;
51489;SDS011;57752;53.574;9.736;2023-07-31T00:54:00;13.10;;;4.30;;
51489;SDS011;57752;53.574;9.736;2023-07-31T00:59:00;16.08;;;4.13;;
51489;SDS011;57752;53.574;9.736;2023-07-31T01:04:01;12.85;;;4.07;;
51489;SDS011;57752;53.574;9.736;2023-07-31T01:09:11;16.33;;;4.72;;
51489;SDS011;57752;53.574;9.736;2023-07-31T01:14:16;17.17;;;4.95;;
51489;SDS011;57752;53.574;9.736;2023-07-31T01:19:16;16.70;;;4.68;;
51489;SDS011;57752;53.574;9.736;2023-07-31T01:24:22;16.77;;;5.35;;
51489;SDS011;57752;53.574;9.736;2023-07-31T01:29:32;18.55;;;4.65;;
51489;SDS011;57752;53.574;9.736;2023-07-31T01:34:34;15.75;;;4.95;;
51489;SDS011;57752;53.574;9.736;2023-07-31T01:39:35;16.20;;;4.90;;
51489;SDS011;57752;53.574;9.736;2023-07-31T01:44:35;25.75;;;6.07;;
51489;SDS011;57752;53.574;9.736;2023-07-31T01:49:35;17.65;;;5.25;;
51489;SDS011;57752;53.574;9.736;2023-07-31T01:54:35;17.05;;;5.53;;
51489;SDS011;57752;53.574;9.736;2023-07-31T01:59:36;14.68;;;4.93;;
51489;SDS011;57752;53.574;9.736;2023-07-31T02:04:36;12.60;;;5.40;;
51489;SDS011;57752;53.574;9.736;2023-07-31T02:09:38;16.08;;;5.20;;
51489;SDS011;57752;53.574;9.736;2023-07-31T02:14:38;17.23;;;5.32;;
51489;SDS011;57752;53.574;9.736;2023-07-31T02:19:38;15.82;;;5.13;;
51489;SDS011;57752;53.574;9.736;2023-07-31T02:24:38;19.27;;;5.35;;
51489;SDS011;57752;53.574;9.736;2023-07-31T02:29:39;13.10;;;4.85;;
51489;SDS011;57752;53.574;9.736;2023-07-31T02:34:39;14.50;;;4.95;;
51489;SDS011;57752;53.574;9.736;2023-07-31T02:39:39;16.48;;;5.78;;
51489;SDS011;57752;53.574;9.736;2023-07-31T02:44:39;16.58;;;5.60;;
51489;SDS011;57752;53.574;9.736;2023-07-31T02:49:39;15.57;;;5.53;;
51489;SDS011;57752;53.574;9.736;2023-07-31T02:54:39;15.15;;;5.15;;
51489;SDS011;57752;53.574;9.736;2023-07-31T02:59:40;15.85;;;5.65;;
51489;SDS011;57752;53.574;9.736;2023-07-31T03:04:40;18.08;;;5.82;;
51489;SDS011;57752;53.574;9.736;2023-07-31T03:09:40;15.40;;;5.85;;
51489;SDS011;57752;53.574;9.736;2023-07-31T03:14:40;17.40;;;6.50;;
51489;SDS011;57752;53.574;9.736;2023-07-31T03:19:40;15.32;;;5.40;;
51489;SDS011;57752;53.574;9.736;2023-07-31T03:24:40;14.95;;;5.80;;
51489;SDS011;57752;53.574;9.736;2023-07-31T03:29:41;15.18;;;5.95;;
51489;SDS011;57752;53.574;9.736;2023-07-31T03:34:41;15.30;;;5.57;;
51489;SDS011;57752;53.574;9.736;2023-07-31T03:39:41;14.52;;;5.45;;
51489;SDS011;57752;53.574;9.736;2023-07-31T03:44:41;15.40;;;5.60;;
51489;SDS011;57752;53.574;9.736;2023-07-31T03:49:41;12.77;;;4.90;;
51489;SDS011;57752;53.574;9.736;2023-07-31T03:54:41;15.32;;;5.68;;
51489;SDS011;57752;53.574;9.736;2023-07-31T03:59:44;15.82;;;5.22;;
51489;SDS011;57752;53.574;9.736;2023-07-31T04:04:44;12.50;;;5.53;;
51489;SDS011;57752;53.574;9.736;2023-07-31T04:09:44;15.45;;;6.18;;
51489;SDS011;57752;53.574;9.736;2023-07-31T04:14:44;15.10;;;6.03;;
51489;SDS011;57752;53.574;9.736;2023-07-31T04:19:44;14.35;;;5.60;;
51489;SDS011;57752;53.574;9.736;2023-07-31T04:24:45;13.00;;;5.65;;
51489;SDS011;57752;53.574;9.736;2023-07-31T04:29:45;11.57;;;4.90;;
51489;SDS011;57752;53.574;9.736;2023-07-31T04:34:46;12.90;;;5.47;;
51489;SDS011;57752;53.574;9.736;2023-07-31T04:39:47;14.02;;;5.78;;
51489;SDS011;57752;53.574;9.736;2023-07-31T04:44:47;13.15;;;5.63;;
51489;SDS011;57752;53.574;9.736;2023-07-31T04:49:47;13.98;;;6.07;;
51489;SDS011;57752;53.574;9.736;2023-07-31T04:54:47;12.70;;;4.88;;
51489;SDS011;57752;53.574;9.736;2023-07-31T04:59:47;14.52;;;4.93;;
51489;SDS011;57752;53.574;9.736;2023-07-31T05:04:47;12.48;;;5.15;;
51489;SDS011;57752;53.574;9.736;2023-07-31T05:09:48;14.23;;;5.10;;
51489;SDS011;57752;53.574;9.736;2023-07-31T05:14:48;14.70;;;5.40;;
51489;SDS011;57752;53.574;9.736;2023-07-31T05:19:48;12.77;;;4.80;;
51489;SDS011;57752;53.574;9.736;2023-07-31T05:24:48;11.65;;;4.35;;
51489;SDS011;57752;53.574;9.736;2023-07-31T05:29:48;12.98;;;4.53;;
51489;SDS011;57752;53.574;9.736;2023-07-31T05:34:50;15.30;;;4.60;;
51489;SDS011;57752;53.574;9.736;2023-07-31T05:39:50;11.07;;;4.38;;
51489;SDS011;57752;53.574;9.736;2023-07-31T05:44:52;10.80;;;4.28;;
51489;SDS011;57752;53.574;9.736;2023-07-31T05:49:52;10.15;;;3.83;;
51489;SDS011;57752;53.574;9.736;2023-07-31T05:54:52;9.85;;;3.78;;
51489;SDS011;57752;53.574;9.736;2023-07-31T05:59:52;12.07;;;4.13;;
51489;SDS011;57752;53.574;9.736;2023-07-31T06:04:53;11.13;;;3.92;;
51489;SDS011;57752;53.574;9.736;2023-07-31T06:09:53;11.65;;;4.10;;
51489;SDS011;57752;53.574;9.736;2023-07-31T06:14:54;11.02;;;4.10;;
51489;SDS011;57752;53.574;9.736;2023-07-31T06:19:55;9.40;;;3.83;;
51489;SDS011;57752;53.574;9.736;2023-07-31T06:24:56;10.45;;;3.78;;
51489;SDS011;57752;53.574;9.736;2023-07-31T06:29:56;11.10;;;3.90;;
51489;SDS011;57752;53.574;9.736;2023-07-31T06:34:57;9.95;;;3.83;;
51489;SDS011;57752;53.574;9.736;2023-07-31T06:39:57;11.07;;;4.07;;
51489;SDS011;57752;53.574;9.736;2023-07-31T06:44:57;10.80;;;3.88;;
51489;SDS011;57752;53.574;9.736;2023-07-31T06:49:58;10.20;;;4.32;;
51489;SDS011;57752;53.574;9.736;2023-07-31T06:55:15;12.20;;;4.18;;
51489;SDS011;57752;53.574;9.736;2023-07-31T07:00:17;12.23;;;4.80;;
51489;SDS011;57752;53.574;9.736;2023-07-31T07:05:18;10.47;;;3.90;;
51489;SDS011;57752;53.574;9.736;2023-07-31T07:10:18;11.20;;;4.47;;
51489;SDS011;57752;53.574;9.736;2023-07-31T07:15:18;11.90;;;4.47;;
51489;SDS011;57752;53.574;9.736;2023-07-31T07:20:18;10.50;;;4.45;;
51489;SDS011;57752;53.574;9.736;2023-07-31T07:25:20;11.27;;;4.72;;
51489;SDS011;57752;53.574;9.736;2023-07-31T07:30:20;12.73;;;4.72;;
51489;SDS011;57752;53.574;9.736;2023-07-31T07:35:20;12.10;;;4.72;;
51489;SDS011;57752;53.574;9.736;2023-07-31T07:40:20;12.45;;;5.03;;
51489;SDS011;57752;53.574;9.736;2023-07-31T07:45:21;11.53;;;4.33;;
51489;SDS011;57752;53.574;9.736;2023-07-31T07:50:21;10.73;;;3.92;;
51489;SDS011;57752;53.574;9.736;2023-07-31T07:55:21;10.73;;;4.47;;
51489;SDS011;57752;53.574;9.736;2023-07-31T08:00:21;9.40;;;3.38;;
51489;SDS011;57752;53.574;9.736;2023-07-31T08:05:21;9.93;;;3.88;;
51489;SDS011;57752;53.574;9.736;2023-07-31T08:10:21;13.50;;;3.65;;
51489;SDS011;57752;53.574;9.736;2023-07-31T08:15:21;12.07;;;2.97;;
51489;SDS011;57752;53.574;9.736;2023-07-31T08:20:22;10.55;;;2.90;;
51489;SDS011;57752;53.574;9.736;2023-07-31T08:25:22;9.32;;;2.97;;
51489;SDS011;57752;53.574;9.736;2023-07-31T08:30:22;9.18;;;3.05;;
51489;SDS011;57752;53.574;9.736;2023-07-31T08:35:23;8.57;;;3.00;;
51489;SDS011;57752;53.574;9.736;2023-07-31T08:40:24;8.63;;;2.60;;
51489;SDS011;57752;53.574;9.736;2023-07-31T08:45:24;7.07;;;2.45;;
51489;SDS011;57752;53.574;9.736;2023-07-31T08:50:24;7.40;;;2.20;;
51489;SDS011;57752;53.574;9.736;2023-07-31T08:55:24;8.70;;;2.13;;
51489;SDS011;57752;53.574;9.736;2023-07-31T09:00:25;8.60;;;2.47;;
51489;SDS011;57752;53.574;9.736;2023-07-31T09:05:26;9.13;;;2.30;;
51489;SDS011;57752;53.574;9.736;2023-07-31T09:10:26;9.20;;;2.38;;
51489;SDS011;57752;53.574;9.736;2023-07-31T09:15:27;8.00;;;2.40;;
51489;SDS011;57752;53.574;9.736;2023-07-31T09:20:27;6.35;;;2.10;;
51489;SDS011;57752;53.574;9.736;2023-07-31T09:25:27;8.65;;;2.40;;
51489;SDS011;57752;53.574;9.736;2023-07-31T09:30:28;13.95;;;2.70;;
51489;SDS011;57752;53.574;9.736;2023-07-31T09:35:29;7.43;;;2.58;;
51489;SDS011;57752;53.574;9.736;2023-07-31T09:40:33;6.82;;;2.30;;
51489;SDS011;57752;53.574;9.736;2023-07-31T09:45:34;8.70;;;2.50;;
51489;SDS011;57752;53.574;9.736;2023-07-31T09:50:39;8.48;;;2.40;;
51489;SDS011;57752;53.574;9.736;2023-07-31T09:55:40;8.73;;;2.50;;
51489;SDS011;57752;53.574;9.736;2023-07-31T10:00:40;7.95;;;2.35;;
51489;SDS011;57752;53.574;9.736;2023-07-31T10:05:42;9.55;;;2.70;;
51489;SDS011;57752;53.574;9.736;2023-07-31T10:10:43;7.97;;;2.45;;
51489;SDS011;57752;53.574;9.736;2023-07-31T10:15:43;6.47;;;2.03;;
51489;SDS011;57752;53.574;9.736;2023-07-31T10:20:44;8.20;;;2.63;;
51489;SDS011;57752;53.574;9.736;2023-07-31T10:25:45;9.48;;;2.50;;
51489;SDS011;57752;53.574;9.736;2023-07-31T10:30:47;9.20;;;2.43;;
51489;SDS011;57752;53.574;9.736;2023-07-31T10:35:47;9.13;;;2.30;;
51489;SDS011;57752;53.574;9.736;2023-07-31T10:40:48;7.68;;;2.30;;
51489;SDS011;57752;53.574;9.736;2023-07-31T10:45:49;8.60;;;2.40;;
51489;SDS011;57752;53.574;9.736;2023-07-31T10:50:50;7.53;;;2.22;;
51489;SDS011;57752;53.574;9.736;2023-07-31T10:55:50;7.55;;;1.98;;
51489;SDS011;57752;53.574;9.736;2023-07-31T11:00:56;8.55;;;2.50;;
51489;SDS011;57752;53.574;9.736;2023-07-31T11:16:01;7.30;;;2.22;;
51489;SDS011;57752;53.574;9.736;2023-07-31T11:21:01;7.05;;;2.00;;
51489;SDS011;57752;53.574;9.736;2023-07-31T11:26:02;8.93;;;2.10;;
51489;SDS011;57752;53.574;9.736;2023-07-31T11:31:02;6.90;;;1.70;;
51489;SDS011;57752;53.574;9.736;2023-07-31T11:36:03;7.45;;;1.90;;
51489;SDS011;57752;53.574;9.736;2023-07-31T11:41:03;5.90;;;1.70;;
51489;SDS011;57752;53.574;9.736;2023-07-31T11:46:04;5.20;;;1.58;;
51489;SDS011;57752;53.574;9.736;2023-07-31T11:51:06;5.53;;;1.70;;
51489;SDS011;57752;53.574;9.736;2023-07-31T11:56:06;7.80;;;1.98;;
51489;SDS011;57752;53.574;9.736;2023-07-31T12:01:07;7.20;;;1.95;;
51489;SDS011;57752;53.574;9.736;2023-07-31T12:06:08;5.63;;;1.70;;
51489;SDS011;57752;53.574;9.736;2023-07-31T12:11:08;7.03;;;1.90;;
51489;SDS011;57752;53.574;9.736;2023-07-31T12:16:09;5.65;;;1.90;;
51489;SDS011;57752;53.574;9.736;2023-07-31T12:21:09;5.60;;;1.70;;
51489;SDS011;57752;53.574;9.736;2023-07-31T12:26:15;7.22;;;1.80;;
51489;SDS011;57752;53.574;9.736;2023-07-31T12:31:19;4.85;;;1.60;;
51489;SDS011;57752;53.574;9.736;2023-07-31T12:36:21;5.05;;;1.65;;
51489;SDS011;57752;53.574;9.736;2023-07-31T12:41:21;7.10;;;1.90;;
51489;SDS011;57752;53.574;9.736;2023-07-31T12:46:22;5.55;;;1.70;;
51489;SDS011;57752;53.574;9.736;2023-07-31T12:51:22;5.85;;;1.60;;
51489;SDS011;57752;53.574;9.736;2023-07-31T12:56:22;3.80;;;1.50;;
51489;SDS011;57752;53.574;9.736;2023-07-31T13:01:22;6.60;;;1.70;;
51489;SDS011;57752;53.574;9.736;2023-07-31T13:06:22;5.75;;;1.70;;
51489;SDS011;57752;53.574;9.736;2023-07-31T13:11:22;5.55;;;1.63;;
51489;SDS011;57752;53.574;9.736;2023-07-31T13:16:22;5.32;;;1.63;;
51489;SDS011;57752;53.574;9.736;2023-07-31T13:21:23;7.82;;;1.70;;
51489;SDS011;57752;53.574;9.736;2023-07-31T13:26:23;4.55;;;1.70;;
51489;SDS011;57752;53.574;9.736;2023-07-31T13:31:23;5.43;;;1.83;;
51489;SDS011;57752;53.574;9.736;2023-07-31T13:36:23;5.95;;;1.80;;
51489;SDS011;57752;53.574;9.736;2023-07-31T13:41:23;3.90;;;1.53;;
51489;SDS011;57752;53.574;9.736;2023-07-31T13:46:23;6.72;;;2.00;;
51489;SDS011;57752;53.574;9.736;2023-07-31T13:51:25;7.47;;;2.05;;
51489;SDS011;57752;53.574;9.736;2023-07-31T13:56:25;8.25;;;2.00;;
51489;SDS011;57752;53.574;9.736;2023-07-31T14:01:26;8.63;;;2.10;;
51489;SDS011;57752;53.574;9.736;2023-07-31T14:06:26;7.07;;;2.10;;
51489;SDS011;57752;53.574;9.736;2023-07-31T14:11:26;9.00;;;2.50;;
51489;SDS011;57752;53.574;9.736;2023-07-31T14:16:27;11.45;;;3.63;;
51489;SDS011;57752;53.574;9.736;2023-07-31T14:21:27;18.90;;;3.33;;
51489;SDS011;57752;53.574;9.736;2023-07-31T14:26:27;10.10;;;2.55;;
51489;SDS011;57752;53.574;9.736;2023-07-31T14:31:28;10.00;;;2.30;;
51489;SDS011;57752;53.574;9.736;2023-07-31T14:36:28;10.68;;;2.38;;
51489;SDS011;57752;53.574;9.736;2023-07-31T14:41:28;8.98;;;2.20;;
51489;SDS011;57752;53.574;9.736;2023-07-31T14:46:28;8.02;;;2.10;;
51489;SDS011;57752;53.574;9.736;2023-07-31T14:51:28;7.57;;;2.10;;
51489;SDS011;57752;53.574;9.736;2023-07-31T14:56:28;8.18;;;2.10;;
51489;SDS011;57752;53.574;9.736;2023-07-31T15:01:28;7.85;;;2.10;;
51489;SDS011;57752;53.574;9.736;2023-07-31T15:06:29;8.60;;;2.60;;
51489;SDS011;57752;53.574;9.736;2023-07-31T15:11:29;9.45;;;3.13;;
51489;SDS011;57752;53.574;9.736;2023-07-31T15:16:29;9.65;;;3.28;;
51489;SDS011;57752;53.574;9.736;2023-07-31T15:21:31;9.40;;;3.50;;
51489;SDS011;57752;53.574;9.736;2023-07-31T15:26:31;10.85;;;3.03;;
51489;SDS011;57752;53.574;9.736;2023-07-31T15:31:31;9.00;;;2.90;;
51489;SDS011;57752;53.574;9.736;2023-07-31T15:36:31;16.05;;;3.70;;
51489;SDS011;57752;53.574;9.736;2023-07-31T15:41:32;16.00;;;6.75;;
51489;SDS011;57752;53.574;9.736;2023-07-31T15:46:32;14.52;;;4.40;;
51489;SDS011;57752;53.574;9.736;2023-07-31T15:51:32;15.57;;;4.50;;
51489;SDS011;57752;53.574;9.736;2023-07-31T15:56:33;12.18;;;4.30;;
51489;SDS011;57752;53.574;9.736;2023-07-31T16:01:33;10.48;;;3.83;;
51489;SDS011;57752;53.574;9.736;2023-07-31T16:06:33;11.43;;;3.55;;
51489;SDS011;57752;53.574;9.736;2023-07-31T16:11:34;11.77;;;3.05;;
51489;SDS011;57752;53.574;9.736;2023-07-31T16:16:34;10.43;;;2.97;;
51489;SDS011;57752;53.574;9.736;2023-07-31T16:21:35;11.40;;;3.60;;
51489;SDS011;57752;53.574;9.736;2023-07-31T16:26:35;8.80;;;2.83;;
51489;SDS011;57752;53.574;9.736;2023-07-31T16:31:35;10.45;;;2.63;;
51489;SDS011;57752;53.574;9.736;2023-07-31T16:36:35;9.82;;;2.75;;
51489;SDS011;57752;53.574;9.736;2023-07-31T16:41:35;12.93;;;2.83;;
51489;SDS011;57752;53.574;9.736;2023-07-31T16:46:36;9.60;;;2.40;;
51489;SDS011;57752;53.574;9.736;2023-07-31T16:51:36;9.70;;;2.38;;
51489;SDS011;57752;53.574;9.736;2023-07-31T16:56:36;6.40;;;1.90;;
51489;SDS011;57752;53.574;9.736;2023-07-31T17:01:36;7.88;;;2.20;;
51489;SDS011;57752;53.574;9.736;2023-07-31T17:06:36;10.40;;;2.58;;
51489;SDS011;57752;53.574;9.736;2023-07-31T17:11:37;7.85;;;2.20;;
51489;SDS011;57752;53.574;9.736;2023-07-31T17:16:37;9.38;;;2.40;;
51489;SDS011;57752;53.574;9.736;2023-07-31T17:21:37;9.07;;;2.80;;
51489;SDS011;57752;53.574;9.736;2023-07-31T17:26:37;8.82;;;2.80;;
51489;SDS011;57752;53.574;9.736;2023-07-31T17:31:37;9.27;;;2.92;;
51489;SDS011;57752;53.574;9.736;2023-07-31T17:36:38;13.80;;;3.58;;
51489;SDS011;57752;53.574;9.736;2023-07-31T17:41:38;13.65;;;3.60;;
51489;SDS011;57752;53.574;9.736;2023-07-31T17:46:39;13.80;;;3.97;;
51489;SDS011;57752;53.574;9.736;2023-07-31T17:51:39;9.23;;;3.50;;
51489;SDS011;57752;53.574;9.736;2023-07-31T17:56:40;9.73;;;3.65;;
51489;SDS011;57752;53.574;9.736;2023-07-31T18:01:40;12.90;;;4.10;;
51489;SDS011;57752;53.574;9.736;2023-07-31T18:06:40;12.38;;;4.75;;
51489;SDS011;57752;53.574;9.736;2023-07-31T18:11:40;11.25;;;5.15;;
51489;SDS011;57752;53.574;9.736;2023-07-31T18:16:40;14.35;;;5.88;;
51489;SDS011;57752;53.574;9.736;2023-07-31T18:21:41;12.63;;;6.05;;
51489;SDS011;57752;53.574;9.736;2023-07-31T18:26:41;13.65;;;7.07;;
51489;SDS011;57752;53.574;9.736;2023-07-31T18:31:41;16.85;;;7.95;;
51489;SDS011;57752;53.574;9.736;2023-07-31T18:36:41;17.30;;;7.72;;
51489;SDS011;57752;53.574;9.736;2023-07-31T18:41:42;16.67;;;8.88;;
51489;SDS011;57752;53.574;9.736;2023-07-31T18:46:42;15.85;;;7.03;;
51489;SDS011;57752;53.574;9.736;2023-07-31T18:51:42;20.05;;;9.02;;
51489;SDS011;57752;53.574;9.736;2023-07-31T18:56:42;19.85;;;9.63;;
51489;SDS011;57752;53.574;9.736;2023-07-31T19:01:42;17.58;;;8.43;;
51489;SDS011;57752;53.574;9.736;2023-07-31T19:06:44;20.90;;;9.13;;
51489;SDS011;57752;53.574;9.736;2023-07-31T19:11:44;22.35;;;10.68;;
51489;SDS011;57752;53.574;9.736;2023-07-31T19:16:44;21.42;;;11.02;;
51489;SDS011;57752;53.574;9.736;2023-07-31T19:21:44;22.30;;;11.63;;
51489;SDS011;57752;53.574;9.736;2023-07-31T19:26:45;20.92;;;11.30;;
51489;SDS011;57752;53.574;9.736;2023-07-31T19:31:45;21.83;;;9.60;;
51489;SDS011;57752;53.574;9.736;2023-07-31T19:36:45;20.65;;;9.63;;
51489;SDS011;57752;53.574;9.736;2023-07-31T19:41:48;23.35;;;10.85;;
51489;SDS011;57752;53.574;9.736;2023-07-31T19:46:48;21.17;;;10.63;;
51489;SDS011;57752;53.574;9.736;2023-07-31T19:51:48;19.75;;;9.13;;
51489;SDS011;57752;53.574;9.736;2023-07-31T19:56:48;22.38;;;10.85;;
51489;SDS011;57752;53.574;9.736;2023-07-31T20:01:49;18.42;;;9.73;;
51489;SDS011;57752;53.574;9.736;2023-07-31T20:06:50;21.10;;;10.50;;
51489;SDS011;57752;53.574;9.736;2023-07-31T20:11:50;23.05;;;9.60;;
51489;SDS011;57752;53.574;9.736;2023-07-31T20:16:50;19.05;;;9.95;;
51489;SDS011;57752;53.574;9.736;2023-07-31T20:21:50;19.13;;;9.07;;
51489;SDS011;57752;53.574;9.736;2023-07-31T20:26:51;18.20;;;8.30;;
51489;SDS011;57752;53.574;9.736;2023-07-31T20:31:51;17.52;;;8.90;;
51489;SDS011;57752;53.574;9.736;2023-07-31T20:36:51;18.13;;;7.28;;
51489;SDS011;57752;53.574;9.736;2023-07-31T20:41:51;13.80;;;6.50;;
51489;SDS011;57752;53.574;9.736;2023-07-31T20:46:52;15.00;;;7.32;;
51489;SDS011;57752;53.574;9.736;2023-07-31T20:51:52;17.05;;;6.88;;
51489;SDS011;57752;53.574;9.736;2023-07-31T20:56:52;13.55;;;6.32;;
51489;SDS011;57752;53.574;9.736;2023-07-31T21:01:52;13.52;;;6.07;;
51489;SDS011;57752;53.574;9.736;2023-07-31T21:06:52;14.88;;;5.90;;
51489;SDS011;57752;53.574;9.736;2023-07-31T21:11:52;16.67;;;5.88;;
51489;SDS011;57752;53.574;9.736;2023-07-31T21:16:53;12.70;;;5.53;;
51489;SDS011;57752;53.574;9.736;2023-07-31T21:21:53;14.68;;;5.93;;
51489;SDS011;57752;53.574;9.736;2023-07-31T21:26:53;22.95;;;13.23;;
51489;SDS011;57752;53.574;9.736;2023-07-31T21:31:53;19.13;;;11.57;;
51489;SDS011;57752;53.574;9.736;2023-07-31T21:36:53;15.57;;;5.97;;
51489;SDS011;57752;53.574;9.736;2023-07-31T21:41:53;11.35;;;4.65;;
51489;SDS011;57752;53.574;9.736;2023-07-31T21:46:54;10.98;;;4.30;;
51489;SDS011;57752;53.574;9.736;2023-07-31T21:51:54;11.50;;;4.15;;
51489;SDS011;57752;53.574;9.736;2023-07-31T21:56:54;9.45;;;3.10;;
51489;SDS011;57752;53.574;9.736;2023-07-31T22:01:54;12.85;;;3.63;;
51489;SDS011;57752;53.574;9.736;2023-07-31T22:06:54;10.13;;;3.15;;
51489;SDS011;57752;53.574;9.736;2023-07-31T22:11:54;10.38;;;3.40;;
51489;SDS011;57752;53.574;9.736;2023-07-31T22:16:54;8.98;;;2.90;;
51489;SDS011;57752;53.574;9.736;2023-07-31T22:21:55;8.18;;;2.67;;
51489;SDS011;57752;53.574;9.736;2023-07-31T22:26:56;12.00;;;2.63;;
51489;SDS011;57752;53.574;9.736;2023-07-31T22:31:56;9.55;;;2.70;;
51489;SDS011;57752;53.574;9.736;2023-07-31T22:36:57;8.60;;;2.30;;
51489;SDS011;57752;53.574;9.736;2023-07-31T22:41:57;7.55;;;2.40;;
51489;SDS011;57752;53.574;9.736;2023-07-31T22:46:57;10.75;;;2.60;;
51489;SDS011;57752;53.574;9.736;2023-07-31T22:51:57;9.50;;;2.58;;
51489;SDS011;57752;53.574;9.736;2023-07-31T22:56:57;12.02;;;3.38;;
51489;SDS011;57752;53.574;9.736;2023-07-31T23:01:57;8.07;;;2.35;;
51489;SDS011;57752;53.574;9.736;2023-07-31T23:06:58;9.40;;;3.03;;
51489;SDS011;57752;53.574;9.736;2023-07-31T23:11:58;10.90;;;3.70;;
51489;SDS011;57752;53.574;9.736;2023-07-31T23:16:58;14.70;;;4.93;;
51489;SDS011;57752;53.574;9.736;2023-07-31T23:21:58;13.63;;;4.72;;
51489;SDS011;57752;53.574;9.736;2023-07-31T23:26:58;12.77;;;4.82;;
51489;SDS011;57752;53.574;9.736;2023-07-31T23:31:59;11.77;;;5.05;;
51489;SDS011;57752;53.574;9.736;2023-07-31T23:36:59;13.25;;;4.53;;
51489;SDS011;57752;53.574;9.736;2023-07-31T23:41:59;14.65;;;5.60;;
51489;SDS011;57752;53.574;9.736;2023-07-31T23:46:59;12.77;;;5.30;;
51489;SDS011;57752;53.574;9.736;2023-07-31T23:51:59;10.32;;;4.20;;
51489;SDS011;57752;53.574;9.736;2023-07-31T23:57:00;11.23;;;3.42;;
